Time;durP1;ratioP1;P1;durP2;ratioP2;P2;SDS_P1;SDS_P2;PMS_P1;PMS_P2;Temp;Humidity;BMP_temperature;BMP_pressure;BME280_temperature;BME280_humidity;BME280_pressure;Samples;Min_cycle;Max_cycle;Signal;HPM_P1;HPM_P2
2021/12/03 00:01:04;;;;;;;8.23;1.77;;;-1.10;99.90;;;;;;5052949;28;20409;-72
2021/12/03 00:03:29;;;;;;;1.60;1.50;;;-1.10;99.90;;;;;;5054242;28;20277;-71
2021/12/03 00:05:57;;;;;;;1.17;1.10;;;-1.10;99.90;;;;;;5054124;28;20519;-72
2021/12/03 00:08:26;;;;;;;2.70;1.40;;;-1.10;99.90;;;;;;5054164;28;20177;-72
2021/12/03 00:10:58;;;;;;;1.67;1.57;;;-1.20;99.90;;;;;;5054207;28;20397;-72
2021/12/03 00:13:25;;;;;;;1.47;1.37;;;-1.20;99.90;;;;;;5046719;28;20939;-72
2021/12/03 00:15:52;;;;;;;1.47;1.37;;;-1.10;99.90;;;;;;5033648;28;20424;-70
2021/12/03 00:18:17;;;;;;;2.23;2.13;;;-1.10;99.90;;;;;;5033845;28;20402;-69
2021/12/03 00:20:43;;;;;;;1.80;1.70;;;-1.20;99.90;;;;;;5033572;28;20440;-71
2021/12/03 00:23:09;;;;;;;1.47;1.27;;;-1.20;99.90;;;;;;5033803;28;20203;-73
2021/12/03 00:25:36;;;;;;;0.70;0.70;;;-1.00;99.90;;;;;;5033478;28;20588;-72
2021/12/03 00:28:03;;;;;;;1.23;1.13;;;-1.00;99.90;;;;;;5033703;28;20420;-72
2021/12/03 00:30:28;;;;;;;1.40;1.30;;;-1.10;99.90;;;;;;5033890;28;20406;-71
2021/12/03 00:32:54;;;;;;;6.20;1.20;;;-1.10;99.90;;;;;;5033906;28;20761;-72
2021/12/03 00:35:21;;;;;;;1.10;1.00;;;-1.10;99.90;;;;;;5032586;28;20176;-71
2021/12/03 00:37:48;;;;;;;1.23;1.10;;;-1.10;99.90;;;;;;5013901;28;20192;-72
2021/12/03 00:40:25;;;;;;;1.70;1.60;;;-1.20;99.90;;;;;;5012181;28;20419;-70
2021/12/03 00:42:51;;;;;;;0.80;0.80;;;-1.30;99.90;;;;;;5013600;28;20821;-72
2021/12/03 00:45:17;;;;;;;0.70;0.70;;;-1.30;99.90;;;;;;5013251;28;20407;-71
2021/12/03 00:47:44;;;;;;;1.50;1.40;;;-1.20;99.90;;;;;;5013778;28;20427;-71
2021/12/03 00:50:12;;;;;;;0.80;0.80;;;-1.10;99.90;;;;;;5013840;28;20407;-70
2021/12/03 00:52:37;;;;;;;1.27;1.13;;;-1.10;99.90;;;;;;5013617;28;20897;-71
2021/12/03 00:55:04;;;;;;;2.40;1.27;;;-1.20;99.90;;;;;;5013838;28;20510;-71
2021/12/03 00:57:30;;;;;;;1.27;1.20;;;-1.00;99.90;;;;;;5012635;28;20184;-71
2021/12/03 00:59:55;;;;;;;1.37;1.27;;;-1.00;99.90;;;;;;5043662;28;20424;-71
2021/12/03 01:02:21;;;;;;;0.80;0.80;;;-1.00;99.90;;;;;;5046764;28;20227;-71
2021/12/03 01:04:47;;;;;;;0.90;0.90;;;-0.90;99.90;;;;;;5033026;28;20257;-71
2021/12/03 01:07:16;;;;;;;0.70;0.70;;;-1.00;99.90;;;;;;5033042;28;20261;-70
2021/12/03 01:09:42;;;;;;;1.47;1.37;;;-1.00;99.90;;;;;;5033106;28;20160;-72
2021/12/03 01:12:07;;;;;;;2.10;1.73;;;-1.00;99.90;;;;;;5033029;28;20419;-71
2021/12/03 01:14:33;;;;;;;7.10;1.10;;;-0.90;99.90;;;;;;5023456;28;20435;-71
2021/12/03 01:16:59;;;;;;;1.47;1.37;;;-0.90;99.90;;;;;;5012988;28;20200;-71
2021/12/03 01:19:31;;;;;;;0.80;0.80;;;-0.90;99.90;;;;;;5068944;28;20519;-70
2021/12/03 01:21:56;;;;;;;0.80;0.80;;;-0.90;99.90;;;;;;5069201;28;20454;-72
2021/12/03 01:24:22;;;;;;;1.00;0.80;;;-0.90;99.90;;;;;;5069067;28;20172;-69
2021/12/03 01:26:51;;;;;;;2.40;0.90;;;-0.90;99.90;;;;;;5068984;28;20190;-70
2021/12/03 01:29:17;;;;;;;1.57;0.80;;;-0.90;99.90;;;;;;5069027;28;20166;-69
2021/12/03 01:31:42;;;;;;;1.10;1.10;;;-0.90;99.90;;;;;;5068976;28;20392;-69
2021/12/03 01:34:08;;;;;;;1.27;1.17;;;-0.90;99.90;;;;;;5068933;28;20189;-69
2021/12/03 01:36:34;;;;;;;0.80;0.80;;;-0.90;99.90;;;;;;5068948;28;20187;-69
2021/12/03 01:38:59;;;;;;;2.53;1.20;;;-0.90;99.90;;;;;;5069196;28;20222;-69
2021/12/03 01:41:27;;;;;;;0.80;0.80;;;-0.90;99.90;;;;;;5068839;28;20168;-69
2021/12/03 01:43:58;;;;;;;1.73;1.63;;;-0.80;99.90;;;;;;5069177;28;20170;-69
2021/12/03 01:46:24;;;;;;;0.80;0.80;;;-0.80;99.90;;;;;;5069411;28;20518;-69
2021/12/03 01:48:49;;;;;;;1.47;1.37;;;-0.80;99.90;;;;;;5069293;28;20408;-69
2021/12/03 01:51:15;;;;;;;0.90;0.90;;;-0.70;99.90;;;;;;5068878;28;20509;-70
2021/12/03 01:53:41;;;;;;;0.93;0.93;;;-0.60;99.90;;;;;;5069054;28;20238;-69
2021/12/03 01:56:10;;;;;;;3.90;1.10;;;-0.70;99.90;;;;;;5068829;28;20432;-69
2021/12/03 01:58:41;;;;;;;1.53;1.33;;;-0.60;99.90;;;;;;5068655;28;20457;-69
2021/12/03 02:01:10;;;;;;;1.30;1.20;;;-0.60;99.90;;;;;;5048589;28;20401;-69
2021/12/03 02:03:39;;;;;;;0.97;0.97;;;-0.60;99.90;;;;;;5048485;28;20406;-69
2021/12/03 02:06:08;;;;;;;1.03;0.93;;;-0.60;99.90;;;;;;5048504;28;20421;-69
2021/12/03 02:08:34;;;;;;;1.30;1.23;;;-0.50;99.90;;;;;;5048495;28;20956;-69
2021/12/03 02:11:00;;;;;;;0.80;0.80;;;-0.50;99.90;;;;;;5048186;28;20409;-69
2021/12/03 02:13:26;;;;;;;2.73;1.00;;;-0.50;99.90;;;;;;5055997;28;20547;-69
2021/12/03 02:15:52;;;;;;;1.20;1.10;;;-0.50;99.90;;;;;;5066832;28;20507;-69
2021/12/03 02:18:18;;;;;;;1.67;1.37;;;-0.50;99.90;;;;;;5068291;28;20522;-69
2021/12/03 02:20:48;;;;;;;0.73;0.73;;;-0.40;99.90;;;;;;5068269;28;20880;-70
2021/12/03 02:23:15;;;;;;;1.23;1.13;;;-0.20;99.90;;;;;;5068508;28;20253;-69
2021/12/03 02:25:41;;;;;;;1.10;1.00;;;-0.20;99.90;;;;;;5068355;28;20464;-68
2021/12/03 02:28:07;;;;;;;3.43;2.70;;;-0.10;99.90;;;;;;5068180;28;20413;-69
2021/12/03 02:30:33;;;;;;;1.30;1.20;;;-0.20;99.90;;;;;;5056408;28;20402;-68
2021/12/03 02:32:59;;;;;;;1.53;1.43;;;-0.20;99.90;;;;;;5054600;28;20167;-68
2021/12/03 02:35:24;;;;;;;1.20;1.20;;;-0.30;99.90;;;;;;5054202;28;20532;-68
2021/12/03 02:37:51;;;;;;;1.90;1.80;;;-0.20;99.90;;;;;;5054674;28;20210;-69
2021/12/03 02:40:17;;;;;;;0.90;0.90;;;-0.20;99.90;;;;;;5054285;28;20170;-68
2021/12/03 02:42:44;;;;;;;1.13;1.13;;;-0.20;99.90;;;;;;5054471;28;20488;-67
2021/12/03 02:45:12;;;;;;;1.30;1.20;;;-0.20;99.90;;;;;;5054316;28;20401;-69
2021/12/03 02:47:38;;;;;;;1.13;1.07;;;-0.20;99.90;;;;;;5054006;28;20457;-69
2021/12/03 02:50:05;;;;;;;1.30;1.00;;;-0.10;99.90;;;;;;5053628;28;20421;-69
2021/12/03 02:52:31;;;;;;;1.57;1.47;;;-0.10;99.90;;;;;;5054169;28;20463;-69
2021/12/03 02:54:57;;;;;;;1.90;1.80;;;0.00;99.90;;;;;;5045278;28;20426;-69
2021/12/03 02:57:22;;;;;;;0.93;0.90;;;0.00;99.90;;;;;;5054051;28;20585;-70
2021/12/03 02:59:48;;;;;;;1.10;1.10;;;0.00;99.90;;;;;;5038578;28;20179;-69
2021/12/03 03:02:14;;;;;;;1.20;1.10;;;0.00;99.90;;;;;;5054416;28;20198;-69
2021/12/03 03:04:39;;;;;;;2.87;2.37;;;0.00;99.90;;;;;;5054310;28;20182;-68
2021/12/03 03:07:05;;;;;;;0.97;0.97;;;0.10;99.90;;;;;;5054351;28;20262;-70
2021/12/03 03:09:31;;;;;;;2.40;1.50;;;0.10;99.90;;;;;;5054786;28;20179;-70
2021/12/03 03:11:58;;;;;;;0.90;0.90;;;0.10;99.90;;;;;;5054954;28;20163;-69
2021/12/03 03:14:24;;;;;;;1.33;1.23;;;0.00;99.90;;;;;;5069327;28;20412;-69
2021/12/03 03:16:52;;;;;;;1.20;1.20;;;0.00;99.90;;;;;;5074119;28;20429;-69
2021/12/03 03:19:21;;;;;;;1.43;1.33;;;0.00;99.90;;;;;;5073978;28;20533;-69
2021/12/03 03:21:47;;;;;;;12.57;1.33;;;0.00;99.90;;;;;;5074040;28;20412;-69
2021/12/03 03:24:14;;;;;;;1.10;1.00;;;0.00;99.90;;;;;;5073862;28;20408;-68
2021/12/03 03:26:41;;;;;;;1.20;1.10;;;-0.10;99.90;;;;;;5073839;28;20436;-69
2021/12/03 03:29:09;;;;;;;0.90;0.90;;;-0.10;99.90;;;;;;5073739;28;20515;-70
2021/12/03 03:31:36;;;;;;;1.00;1.00;;;-0.10;99.90;;;;;;5072259;28;20419;-69
2021/12/03 03:34:03;;;;;;;0.97;0.97;;;0.00;99.90;;;;;;5065470;28;20468;-70
2021/12/03 03:36:34;;;;;;;2.63;1.00;;;0.00;99.90;;;;;;5053413;28;20436;-69
2021/12/03 03:38:59;;;;;;;0.70;0.70;;;0.00;99.90;;;;;;5053396;28;20910;-70
2021/12/03 03:41:25;;;;;;;2.20;1.10;;;0.00;99.90;;;;;;5052480;28;20474;-69
2021/12/03 03:43:51;;;;;;;1.67;1.33;;;0.00;99.90;;;;;;5052328;28;20626;-70
2021/12/03 03:46:16;;;;;;;2.80;1.50;;;0.00;99.90;;;;;;5049937;28;20195;-69
2021/12/03 03:48:42;;;;;;;1.57;1.40;;;-0.10;99.90;;;;;;5053089;28;20183;-69
2021/12/03 03:51:08;;;;;;;1.00;1.00;;;-0.10;99.90;;;;;;5053219;28;20175;-70
2021/12/03 03:53:33;;;;;;;0.80;0.80;;;0.00;99.90;;;;;;5052898;28;20313;-68
2021/12/03 03:55:59;;;;;;;1.20;1.20;;;0.00;99.90;;;;;;5053174;28;20281;-68
2021/12/03 03:58:24;;;;;;;2.57;1.43;;;-0.10;99.90;;;;;;5045718;28;20248;-69
2021/12/03 04:00:50;;;;;;;1.30;1.20;;;0.00;99.90;;;;;;5050841;28;20179;-69
2021/12/03 04:03:16;;;;;;;0.90;0.87;;;-0.10;99.90;;;;;;5052916;28;20173;-69
2021/12/03 04:05:42;;;;;;;2.03;1.93;;;0.00;99.90;;;;;;5052628;28;20413;-69
2021/12/03 04:08:07;;;;;;;1.40;1.30;;;0.00;99.90;;;;;;5052629;28;20409;-69
2021/12/03 04:10:33;;;;;;;1.33;1.23;;;0.00;99.90;;;;;;5053000;28;20193;-69
2021/12/03 04:12:59;;;;;;;2.50;1.80;;;0.10;99.90;;;;;;5052572;28;20519;-69
2021/12/03 04:15:25;;;;;;;2.60;2.40;;;0.10;99.90;;;;;;5046845;28;20613;-69
2021/12/03 04:17:51;;;;;;;1.23;1.13;;;0.00;99.90;;;;;;5051495;28;20213;-69
2021/12/03 04:20:18;;;;;;;1.67;1.10;;;0.10;99.90;;;;;;5052575;28;20174;-70
2021/12/03 04:22:44;;;;;;;1.63;1.53;;;0.10;99.90;;;;;;5052328;28;20473;-70
2021/12/03 04:25:13;;;;;;;2.30;1.40;;;0.10;99.90;;;;;;5052376;28;20504;-69
2021/12/03 04:27:39;;;;;;;1.83;1.73;;;0.20;99.90;;;;;;5052250;28;20437;-70
2021/12/03 04:30:08;;;;;;;1.70;1.60;;;0.20;99.90;;;;;;5052504;28;20413;-70
2021/12/03 04:32:34;;;;;;;2.07;1.97;;;0.20;99.90;;;;;;5052252;28;20179;-70
2021/12/03 04:34:59;;;;;;;2.93;2.73;;;0.20;99.90;;;;;;5052209;28;20960;-69
2021/12/03 04:37:25;;;;;;;1.53;1.40;;;0.20;99.90;;;;;;5051922;28;20198;-69
2021/12/03 04:39:51;;;;;;;5.70;2.00;;;0.30;99.90;;;;;;5050791;28;20213;-68
2021/12/03 04:42:17;;;;;;;1.50;1.10;;;0.30;99.90;;;;;;5052077;28;20650;-69
2021/12/03 04:44:43;;;;;;;4.20;1.47;;;0.30;99.90;;;;;;5051924;28;20405;-70
2021/12/03 04:47:08;;;;;;;1.73;1.20;;;0.30;99.90;;;;;;5052328;28;20432;-69
2021/12/03 04:49:34;;;;;;;3.07;1.63;;;0.20;99.90;;;;;;5052077;28;20654;-70
2021/12/03 04:52:00;;;;;;;5.47;2.00;;;0.20;99.90;;;;;;5051526;28;20189;-70
2021/12/03 04:54:26;;;;;;;1.63;1.20;;;0.20;99.90;;;;;;5051886;28;20163;-70
2021/12/03 04:56:53;;;;;;;1.83;1.70;;;0.20;99.90;;;;;;5052146;28;20605;-69
2021/12/03 04:59:21;;;;;;;2.17;1.73;;;0.20;99.90;;;;;;5051827;28;20456;-69
2021/12/03 05:01:47;;;;;;;1.43;1.33;;;0.20;99.90;;;;;;5037109;28;20480;-70
2021/12/03 05:04:12;;;;;;;2.20;1.73;;;0.20;99.90;;;;;;5049529;28;20410;-70
2021/12/03 05:09:32;;;;;;;0.70;0.70;;;0.20;99.90;;;;;;5049572;28;20179;-69
2021/12/03 05:11:59;;;;;;;1.57;1.20;;;0.20;99.90;;;;;;5044301;28;20472;-69
2021/12/03 05:14:24;;;;;;;2.20;1.03;;;0.20;99.90;;;;;;5031917;28;20176;-70
2021/12/03 05:16:50;;;;;;;2.40;1.43;;;0.20;99.90;;;;;;5031454;28;20786;-69
2021/12/03 05:19:17;;;;;;;1.60;1.20;;;0.10;99.90;;;;;;5031633;28;20678;-68
2021/12/03 05:21:44;;;;;;;2.63;2.53;;;0.10;99.90;;;;;;5043486;28;20297;-68
2021/12/03 05:24:10;;;;;;;1.83;0.80;;;0.10;99.90;;;;;;5051623;28;20412;-69
2021/12/03 05:26:37;;;;;;;1.53;1.47;;;0.10;99.90;;;;;;5051440;28;20425;-69
2021/12/03 05:29:04;;;;;;;1.70;1.57;;;0.10;99.90;;;;;;5051523;28;20413;-69
2021/12/03 05:31:30;;;;;;;1.10;0.97;;;0.10;99.90;;;;;;5051342;28;20408;-69
2021/12/03 05:33:55;;;;;;;1.90;1.27;;;0.00;99.90;;;;;;5051433;28;20783;-69
2021/12/03 05:36:21;;;;;;;0.93;0.93;;;0.10;99.90;;;;;;5053001;28;20199;-70
2021/12/03 05:38:46;;;;;;;1.83;1.73;;;0.00;99.90;;;;;;5052621;28;20206;-70
2021/12/03 05:41:12;;;;;;;1.40;1.10;;;0.00;99.90;;;;;;5051594;28;20262;-70
2021/12/03 05:43:37;;;;;;;1.50;1.40;;;0.00;99.90;;;;;;5051845;28;20178;-69
2021/12/03 05:46:03;;;;;;;0.70;0.70;;;0.00;99.90;;;;;;5051354;28;20198;-70
2021/12/03 05:48:29;;;;;;;1.57;1.33;;;0.00;99.90;;;;;;5051759;28;20178;-69
2021/12/03 05:50:54;;;;;;;1.47;1.00;;;0.00;99.90;;;;;;5051277;28;20673;-69
2021/12/03 05:53:20;;;;;;;0.90;0.90;;;0.10;99.90;;;;;;5049980;28;20497;-69
2021/12/03 05:55:45;;;;;;;5.40;1.23;;;0.00;99.90;;;;;;5051221;28;20179;-69
2021/12/03 05:58:11;;;;;;;1.73;1.63;;;0.00;99.90;;;;;;5051100;28;20175;-72
2021/12/03 06:00:39;;;;;;;3.07;1.30;;;0.00;99.90;;;;;;5051149;28;20167;-70
2021/12/03 06:03:05;;;;;;;1.73;1.63;;;0.00;99.90;;;;;;5051459;28;20187;-70
2021/12/03 06:05:32;;;;;;;1.03;1.03;;;-0.10;99.90;;;;;;5053865;28;20451;-71
2021/12/03 06:07:58;;;;;;;5.50;1.47;;;-0.10;99.90;;;;;;5055285;28;20447;-71
2021/12/03 06:10:24;;;;;;;1.00;0.97;;;0.00;99.90;;;;;;5055107;28;20401;-68
2021/12/03 06:12:50;;;;;;;2.20;2.10;;;-0.10;99.90;;;;;;5054904;28;20198;-69
2021/12/03 06:15:16;;;;;;;1.70;1.60;;;0.00;99.90;;;;;;5054760;28;20408;-68
2021/12/03 06:17:41;;;;;;;3.10;1.07;;;-0.10;99.90;;;;;;5037228;28;20469;-69
2021/12/03 06:20:08;;;;;;;1.47;1.13;;;0.00;99.90;;;;;;5034807;28;20448;-69
2021/12/03 06:22:34;;;;;;;1.80;1.60;;;0.00;99.90;;;;;;5035000;28;20214;-68
2021/12/03 06:25:01;;;;;;;1.50;1.40;;;0.00;99.90;;;;;;5034716;28;20406;-69
2021/12/03 06:27:29;;;;;;;1.03;0.93;;;0.00;99.90;;;;;;5034437;28;20187;-69
2021/12/03 06:29:55;;;;;;;2.40;1.70;;;-0.10;99.90;;;;;;5032906;28;20556;-69
2021/12/03 06:32:21;;;;;;;3.70;2.37;;;0.10;99.90;;;;;;5034244;28;20407;-70
2021/12/03 06:34:46;;;;;;;4.70;1.80;;;0.00;99.90;;;;;;5032716;28;20172;-69
2021/12/03 06:37:12;;;;;;;1.50;1.23;;;0.00;99.90;;;;;;5033350;28;20197;-69
2021/12/03 06:39:38;;;;;;;1.80;1.70;;;-0.10;99.90;;;;;;5049695;28;20187;-68
2021/12/03 06:42:03;;;;;;;1.27;1.17;;;0.00;99.90;;;;;;5048042;28;20417;-69
2021/12/03 06:44:29;;;;;;;0.90;0.90;;;0.10;99.90;;;;;;5034300;28;20171;-70
2021/12/03 06:46:55;;;;;;;1.63;1.37;;;0.00;99.90;;;;;;5034956;28;20484;-69
2021/12/03 06:49:22;;;;;;;1.13;1.03;;;0.10;99.90;;;;;;5033893;28;20334;-70
2021/12/03 06:51:49;;;;;;;1.50;1.40;;;0.00;99.90;;;;;;5034093;28;20203;-70
2021/12/03 06:54:23;;;;;;;1.67;1.10;;;0.10;99.90;;;;;;5035177;28;20406;-70
2021/12/03 06:56:51;;;;;;;1.00;1.00;;;0.00;99.90;;;;;;5033764;28;20843;-69
2021/12/03 06:59:21;;;;;;;6.73;2.03;;;0.20;99.90;;;;;;5034063;28;21030;-71
2021/12/03 07:01:47;;;;;;;1.20;1.20;;;0.10;99.90;;;;;;5033936;28;20927;-70
2021/12/03 07:04:13;;;;;;;1.93;1.40;;;0.20;99.90;;;;;;5033821;28;20419;-68
2021/12/03 07:06:38;;;;;;;2.00;1.90;;;0.20;99.90;;;;;;5036518;28;20480;-70
2021/12/03 07:09:05;;;;;;;6.20;1.87;;;0.20;99.90;;;;;;5034013;28;20233;-71
2021/12/03 07:11:31;;;;;;;2.33;2.03;;;0.20;99.90;;;;;;5034951;28;20174;-69
2021/12/03 07:13:57;;;;;;;1.97;1.23;;;0.30;99.90;;;;;;5034345;28;20398;-69
2021/12/03 07:16:22;;;;;;;1.67;1.57;;;0.40;99.90;;;;;;5033705;28;20426;-70
2021/12/03 07:18:48;;;;;;;2.13;1.90;;;0.30;99.90;;;;;;5033764;28;20678;-70
2021/12/03 07:21:14;;;;;;;3.13;2.50;;;0.40;99.90;;;;;;5033702;28;20187;-70
2021/12/03 07:23:40;;;;;;;1.67;1.37;;;0.50;99.90;;;;;;5034044;28;20251;-69
2021/12/03 07:26:05;;;;;;;0.87;0.80;;;0.50;99.90;;;;;;5033597;28;20428;-70
2021/12/03 07:28:31;;;;;;;2.23;2.00;;;0.50;99.90;;;;;;5033741;28;20437;-69
2021/12/03 07:30:57;;;;;;;4.10;2.53;;;0.60;99.90;;;;;;5033492;28;20180;-70
2021/12/03 07:33:23;;;;;;;1.63;1.30;;;0.60;99.90;;;;;;5033949;28;20872;-70
2021/12/03 07:35:48;;;;;;;1.30;1.20;;;0.70;99.90;;;;;;5033504;28;20460;-69
2021/12/03 07:38:17;;;;;;;2.87;2.67;;;0.70;99.90;;;;;;5033371;28;20200;-70
2021/12/03 07:40:43;;;;;;;1.27;1.17;;;0.70;99.90;;;;;;5041358;28;20182;-69
2021/12/03 07:43:09;;;;;;;2.87;2.40;;;0.70;99.90;;;;;;5033681;28;20472;-69
2021/12/03 07:45:35;;;;;;;3.33;2.30;;;0.80;99.90;;;;;;5035938;28;20413;-69
2021/12/03 07:48:01;;;;;;;2.00;1.40;;;0.80;99.90;;;;;;5053241;28;20602;-69
2021/12/03 07:50:26;;;;;;;3.17;2.17;;;0.90;99.90;;;;;;5053232;28;20408;-69
2021/12/03 07:52:52;;;;;;;2.30;2.10;;;0.90;99.90;;;;;;5052945;28;20190;-68
2021/12/03 07:55:18;;;;;;;1.87;1.77;;;1.00;99.90;;;;;;5052269;28;20171;-71
2021/12/03 07:57:43;;;;;;;2.27;2.07;;;1.10;99.90;;;;;;5052775;28;20199;-71
2021/12/03 08:00:09;;;;;;;2.00;1.80;;;1.10;99.90;;;;;;5051623;28;20174;-71
2021/12/03 08:02:35;;;;;;;3.70;1.17;;;1.10;99.90;;;;;;5043119;28;20168;-72
2021/12/03 08:05:00;;;;;;;1.90;1.73;;;1.10;99.90;;;;;;5032793;28;20406;-70
2021/12/03 08:07:26;;;;;;;2.53;2.33;;;1.20;99.90;;;;;;5043336;28;20191;-71
2021/12/03 08:09:52;;;;;;;2.23;1.50;;;1.20;99.90;;;;;;5052312;28;20189;-71
2021/12/03 08:12:17;;;;;;;2.20;2.00;;;1.20;99.90;;;;;;5050252;28;20811;-71
2021/12/03 08:14:43;;;;;;;1.23;1.20;;;1.20;99.90;;;;;;5043669;28;20278;-71
2021/12/03 08:17:09;;;;;;;4.57;2.37;;;1.30;99.90;;;;;;5045910;28;20246;-71
2021/12/03 08:19:35;;;;;;;3.00;1.90;;;1.20;99.90;;;;;;5044363;28;20197;-71
2021/12/03 08:22:00;;;;;;;4.87;2.70;;;1.30;99.90;;;;;;5052096;28;20167;-71
2021/12/03 08:24:26;;;;;;;2.10;1.70;;;1.30;99.90;;;;;;5051912;28;20429;-71
2021/12/03 08:26:51;;;;;;;12.30;1.87;;;1.30;99.90;;;;;;5044506;28;20191;-70
2021/12/03 08:29:17;;;;;;;1.20;1.10;;;1.40;99.90;;;;;;5031964;28;20682;-70
2021/12/03 08:31:43;;;;;;;2.70;2.47;;;1.40;99.90;;;;;;5033868;28;20233;-71
2021/12/03 08:34:09;;;;;;;1.97;1.87;;;1.40;99.90;;;;;;5032395;28;20279;-72
2021/12/03 08:36:34;;;;;;;1.83;1.53;;;1.40;99.90;;;;;;5032490;28;20301;-73
2021/12/03 08:39:04;;;;;;;2.07;1.47;;;1.60;99.90;;;;;;5032467;28;20541;-72
2021/12/03 08:41:30;;;;;;;3.80;2.97;;;1.60;99.90;;;;;;5050558;28;20182;-72
2021/12/03 08:43:55;;;;;;;1.93;1.83;;;1.50;99.90;;;;;;5051553;28;20416;-72
2021/12/03 08:46:28;;;;;;;8.83;2.37;;;1.50;99.90;;;;;;5042268;28;20937;-73
2021/12/03 08:49:00;;;;;;;4.33;2.43;;;1.50;99.90;;;;;;5031037;28;20194;-72
2021/12/03 08:51:33;;;;;;;3.07;2.00;;;1.60;99.90;;;;;;5032430;28;20912;-72
2021/12/03 08:56:42;;;;;;;1.07;0.97;;;1.70;99.90;;;;;;5048286;28;20441;-71
2021/12/03 08:59:08;;;;;;;2.27;2.07;;;1.70;99.90;;;;;;5041537;28;20450;-71
2021/12/03 09:01:33;;;;;;;3.27;2.60;;;1.80;99.90;;;;;;5030825;28;20514;-71
2021/12/03 09:03:59;;;;;;;5.50;4.17;;;1.80;99.90;;;;;;5039589;28;20463;-71
2021/12/03 09:06:26;;;;;;;2.30;1.63;;;2.00;99.90;;;;;;5052027;28;20198;-73
2021/12/03 09:08:52;;;;;;;2.57;2.10;;;1.90;99.90;;;;;;5050509;28;20595;-71
2021/12/03 09:11:18;;;;;;;2.50;1.60;;;2.00;99.90;;;;;;5052003;28;20406;-72
2021/12/03 09:13:45;;;;;;;5.20;3.20;;;2.00;99.90;;;;;;5040247;28;20176;-72
2021/12/03 09:16:15;;;;;;;3.77;3.00;;;2.10;99.90;;;;;;5031543;28;20448;-71
2021/12/03 09:18:43;;;;;;;5.03;2.20;;;2.10;99.90;;;;;;5031362;28;20830;-71
2021/12/03 09:21:22;;;;;;;1.37;1.27;;;2.20;99.90;;;;;;5031635;28;20402;-72
2021/12/03 09:26:29;;;;;;;2.47;1.80;;;2.70;99.90;;;;;;5031423;28;20410;-72
2021/12/03 09:29:03;;;;;;;1.30;1.20;;;2.70;99.90;;;;;;5031279;28;20406;-71
2021/12/03 09:31:34;;;;;;;5.60;2.40;;;2.80;99.90;;;;;;5031743;28;20783;-72
2021/12/03 09:34:00;;;;;;;2.03;1.53;;;2.70;99.90;;;;;;5031429;28;20410;-71
2021/12/03 09:36:26;;;;;;;2.20;2.00;;;2.60;99.90;;;;;;5031347;28;20437;-71
2021/12/03 09:38:51;;;;;;;3.70;2.00;;;3.10;99.90;;;;;;5031341;28;20195;-70
2021/12/03 09:41:20;;;;;;;4.03;2.40;;;2.70;99.90;;;;;;5046975;28;20789;-72
2021/12/03 09:43:49;;;;;;;3.17;1.73;;;3.20;99.90;;;;;;5055443;28;20206;-70
2021/12/03 09:46:25;;;;;;;2.17;1.97;;;3.60;99.90;;;;;;5055042;28;20516;-72
2021/12/03 09:51:25;;;;;;;14.50;2.93;;;3.40;99.90;;;;;;5054989;28;20417;-71
2021/12/03 09:54:20;;;;;;;3.80;3.40;;;3.20;99.90;;;;;;5054948;28;20460;-70
2021/12/03 09:56:46;;;;;;;2.47;2.27;;;3.50;99.90;;;;;;5045336;28;20478;-72
2021/12/03 10:02:13;;;;;;;2.83;1.77;;;3.20;99.90;;;;;;5041929;28;20464;-68
2021/12/03 10:15:26;;;;;;;6.13;2.03;;;3.20;99.90;;;;;;5035129;28;20488;-71
2021/12/03 10:20:32;;;;;;;1.87;1.40;;;3.20;99.90;;;;;;5034649;28;20402;-71
2021/12/03 10:23:31;;;;;;;3.83;1.70;;;3.20;99.90;;;;;;5049091;28;20508;-70
2021/12/03 10:26:25;;;;;;;1.63;1.40;;;3.20;99.90;;;;;;5034945;28;20914;-71
2021/12/03 10:28:55;;;;;;;3.33;1.73;;;3.80;99.90;;;;;;5034895;28;20418;-71
2021/12/03 10:34:06;;;;;;;1.77;1.67;;;3.80;99.90;;;;;;5034790;28;20501;-71
2021/12/03 10:36:51;;;;;;;4.17;2.33;;;4.20;99.90;;;;;;5034602;28;20434;-69
2021/12/03 10:39:26;;;;;;;1.40;1.30;;;4.40;99.90;;;;;;5052600;28;20510;-70
2021/12/03 10:45:01;;;;;;;1.27;1.00;;;4.10;99.90;;;;;;5033609;28;20407;-70
2021/12/03 10:52:55;;;;;;;1.43;1.27;;;4.20;99.90;;;;;;5054740;28;20386;-72
2021/12/03 10:58:36;;;;;;;3.57;2.00;;;3.70;99.90;;;;;;5053913;28;21029;-72
2021/12/03 11:12:47;;;;;;;5.13;2.27;;;3.80;99.90;;;;;;5034092;28;20669;-71
2021/12/03 11:18:16;;;;;;;6.17;2.37;;;3.80;99.90;;;;;;5051562;28;20541;-71
2021/12/03 11:37:12;;;;;;;1.77;1.67;;;3.40;99.90;;;;;;5048055;28;20472;-70
2021/12/03 11:43:06;;;;;;;1.37;1.20;;;3.50;99.90;;;;;;5041236;28;20756;-70
2021/12/03 11:51:54;;;;;;;1.10;0.83;;;3.50;99.90;;;;;;5033616;28;20509;-71
2021/12/03 11:57:55;;;;;;;1.83;1.17;;;3.80;99.90;;;;;;5052607;28;20444;-71
2021/12/03 12:14:47;;;;;;;1.50;1.40;;;3.60;99.90;;;;;;5052174;28;20417;-70
2021/12/03 12:17:17;;;;;;;7.60;2.50;;;3.70;99.90;;;;;;5052155;28;20468;-70
2021/12/03 12:23:36;;;;;;;1.67;1.23;;;3.70;99.90;;;;;;5032453;28;20549;-71
2021/12/03 12:26:00;;;;;;;3.30;1.20;;;3.80;99.90;;;;;;5041430;28;20828;-71
2021/12/03 12:29:30;;;;;;;1.63;1.37;;;3.80;99.90;;;;;;5046492;28;20411;-71
2021/12/03 12:35:22;;;;;;;1.30;1.20;;;3.80;99.90;;;;;;5032706;28;20456;-71
2021/12/03 12:41:04;;;;;;;1.30;1.20;;;3.60;99.90;;;;;;5033078;28;20484;-71
2021/12/03 12:58:46;;;;;;;2.13;1.73;;;3.60;99.90;;;;;;5032524;28;20437;-72
2021/12/03 13:01:06;;;;;;;3.17;1.13;;;3.60;99.90;;;;;;5034264;28;20921;-71
2021/12/03 13:11:56;;;;;;;2.80;1.87;;;3.60;99.90;;;;;;5051973;28;20462;-71
2021/12/03 13:14:45;;;;;;;2.07;1.30;;;3.70;99.90;;;;;;5051606;28;20409;-71
2021/12/03 13:28:39;;;;;;;8.77;1.27;;;3.50;99.90;;;;;;5032273;28;21214;-72
2021/12/03 13:35:04;;;;;;;1.60;1.07;;;3.40;99.90;;;;;;5034331;28;20418;-72
2021/12/03 13:38:07;;;;;;;3.70;1.90;;;3.50;99.90;;;;;;5031591;28;20434;-71
2021/12/03 13:46:31;;;;;;;3.80;2.77;;;3.50;99.90;;;;;;5032122;28;20218;-70
2021/12/03 14:07:51;;;;;;;3.10;1.87;;;3.20;99.90;;;;;;5047193;28;20426;-72
2021/12/03 14:36:29;;;;;;;3.30;2.60;;;2.90;99.90;;;;;;5034757;28;20394;-70
2021/12/03 14:41:43;;;;;;;3.10;2.60;;;2.90;99.90;;;;;;5053112;28;20417;-71
2021/12/03 14:52:32;;;;;;;4.30;2.30;;;2.80;99.90;;;;;;5054236;28;20444;-70
2021/12/03 14:55:04;;;;;;;5.20;3.10;;;2.90;99.90;;;;;;5054573;28;20513;-71
2021/12/03 14:57:37;;;;;;;4.97;3.63;;;2.90;99.90;;;;;;5050887;28;20426;-71
2021/12/03 15:08:38;;;;;;;4.97;2.80;;;2.80;99.90;;;;;;5046587;28;20814;-71
2021/12/03 15:11:35;;;;;;;4.73;3.23;;;2.90;99.90;;;;;;5034677;28;20434;-72
2021/12/03 15:17:44;;;;;;;2.70;2.13;;;2.90;99.90;;;;;;5034725;28;20516;-71
2021/12/03 15:20:01;;;;;;;3.27;2.30;;;2.80;99.90;;;;;;5048207;28;20487;-71
2021/12/03 15:30:43;;;;;;;8.87;2.67;;;2.80;99.90;;;;;;5053129;28;20405;-70
2021/12/03 15:36:00;;;;;;;4.70;2.47;;;2.90;99.90;;;;;;5033395;28;20414;-71
2021/12/03 15:38:41;;;;;;;3.17;2.43;;;2.90;99.90;;;;;;5033297;28;20533;-71
2021/12/03 16:10:56;;;;;;;3.60;2.13;;;2.70;99.90;;;;;;5053015;28;20401;-71
2021/12/03 16:24:42;;;;;;;3.20;2.83;;;2.70;99.90;;;;;;5039115;28;20410;-72
2021/12/03 16:46:27;;;;;;;5.77;2.90;;;2.60;99.90;;;;;;5041383;28;20520;-71
2021/12/03 16:51:50;;;;;;;8.40;3.70;;;2.60;99.90;;;;;;5052187;28;20407;-72
2021/12/03 16:54:29;;;;;;;9.43;2.60;;;2.60;99.90;;;;;;5052071;28;20406;-71
2021/12/03 16:56:56;;;;;;;3.53;1.77;;;2.60;99.90;;;;;;5044161;28;20434;-73
2021/12/03 16:59:31;;;;;;;5.03;2.60;;;2.60;99.90;;;;;;5032075;28;20460;-74
2021/12/03 17:02:09;;;;;;;3.80;3.23;;;2.60;99.90;;;;;;5032889;28;20441;-72
2021/12/03 17:08:13;;;;;;;4.03;2.90;;;2.60;99.90;;;;;;5052432;28;20936;-72
2021/12/03 17:12:51;;;;;;;6.50;2.83;;;2.60;99.90;;;;;;5032615;28;20436;-72
2021/12/03 17:15:46;;;;;;;4.47;2.60;;;2.60;99.90;;;;;;5032493;28;20182;-72
2021/12/03 17:21:37;;;;;;;3.40;3.10;;;2.60;99.90;;;;;;5052461;28;20409;-73
2021/12/03 17:27:25;;;;;;;3.17;2.00;;;2.60;99.90;;;;;;5051870;28;20425;-73
2021/12/03 17:51:51;;;;;;;2.80;2.60;;;2.60;99.90;;;;;;5049506;28;20513;-69
2021/12/03 17:54:59;;;;;;;2.93;1.97;;;2.60;99.90;;;;;;5049024;28;20492;-70
2021/12/03 17:59:56;;;;;;;3.93;1.80;;;2.60;99.90;;;;;;5048896;28;20828;-72
2021/12/03 18:02:39;;;;;;;4.57;2.37;;;2.70;99.90;;;;;;5051947;28;20562;-70
2021/12/03 18:05:23;;;;;;;2.23;2.03;;;2.70;99.90;;;;;;5061443;28;20510;-72
2021/12/03 18:08:27;;;;;;;2.70;2.20;;;2.60;99.90;;;;;;5069158;28;20425;-71
2021/12/03 18:11:08;;;;;;;2.40;1.83;;;2.60;99.90;;;;;;5052388;28;20429;-72
2021/12/03 18:19:22;;;;;;;2.50;1.60;;;2.60;99.90;;;;;;5052752;28;20487;-71
2021/12/03 18:43:22;;;;;;;2.53;2.30;;;2.70;99.90;;;;;;5051872;28;20793;-71
2021/12/03 18:47:23;;;;;;;4.13;3.07;;;2.60;99.90;;;;;;5051468;28;20440;-70
2021/12/03 18:50:21;;;;;;;2.00;1.80;;;2.60;99.90;;;;;;5052077;28;20911;-70
2021/12/03 18:53:16;;;;;;;3.63;1.73;;;2.60;99.90;;;;;;5051742;28;20398;-70
2021/12/03 18:55:46;;;;;;;4.40;3.87;;;2.60;99.90;;;;;;5051854;28;20405;-71
2021/12/03 18:58:12;;;;;;;2.80;2.60;;;2.60;99.90;;;;;;5054008;28;20457;-71
2021/12/03 19:00:43;;;;;;;2.80;2.57;;;2.60;99.90;;;;;;5051768;28;20406;-71
2021/12/03 19:06:05;;;;;;;2.07;1.90;;;2.60;99.90;;;;;;5052281;28;20451;-71
2021/12/03 19:11:21;;;;;;;1.87;1.53;;;2.60;99.90;;;;;;5031718;28;20406;-74